createdAt,value
2023-01-13T00:00:23.068Z,15.33
2023-01-13T00:02:49.675Z,15.33
2023-01-13T00:05:16.240Z,15.32
2023-01-13T00:07:43.344Z,15.32
2023-01-13T00:10:11.035Z,15.31
2023-01-13T00:12:41.723Z,15.30
2023-01-13T00:15:09.337Z,15.27
2023-01-13T00:17:36.057Z,15.27
2023-01-13T00:20:02.992Z,15.27
2023-01-13T00:22:29.522Z,15.26
2023-01-13T00:24:58.189Z,15.27
2023-01-13T00:27:25.356Z,15.26
2023-01-13T00:29:51.903Z,15.25
2023-01-13T00:32:18.470Z,15.26
2023-01-13T00:34:45.085Z,15.27
2023-01-13T00:37:14.618Z,15.28
2023-01-13T00:39:41.898Z,15.28
2023-01-13T00:42:26.927Z,15.30
2023-01-13T00:44:53.518Z,15.31
2023-01-13T00:47:20.175Z,15.32
2023-01-13T00:49:46.740Z,15.33
2023-01-13T00:52:13.296Z,15.35
2023-01-13T00:54:40.016Z,15.36
2023-01-13T00:57:06.563Z,15.36
2023-01-13T00:59:33.156Z,15.36
2023-01-13T01:01:59.816Z,15.37
2023-01-13T01:04:26.415Z,15.38
2023-01-13T01:06:53.015Z,15.38
2023-01-13T01:09:19.610Z,15.37
2023-01-13T01:11:46.261Z,15.38
2023-01-13T01:14:13.777Z,15.37
2023-01-13T01:16:41.111Z,15.36
2023-01-13T01:19:08.157Z,15.34
2023-01-13T01:21:35.053Z,15.34
2023-01-13T01:24:03.029Z,15.35
2023-01-13T01:26:30.847Z,15.34
2023-01-13T01:28:57.439Z,15.33
2023-01-13T01:31:26.923Z,15.32
2023-01-13T01:33:54.377Z,15.32
2023-01-13T01:36:22.359Z,15.31
2023-01-13T01:38:49.649Z,15.30
2023-01-13T01:41:19.978Z,15.29
2023-01-13T01:43:59.775Z,15.29
2023-01-13T01:46:31.757Z,15.28
2023-01-13T01:49:23.373Z,15.30
2023-01-13T01:51:57.229Z,15.30
2023-01-13T01:54:27.553Z,15.30
2023-01-13T01:56:54.487Z,15.31
2023-01-13T01:59:21.142Z,15.30
2023-01-13T02:01:48.679Z,15.32
2023-01-13T02:04:23.896Z,15.33
2023-01-13T02:06:50.823Z,15.32
2023-01-13T02:09:17.384Z,15.34
2023-01-13T02:12:02.429Z,15.35
2023-01-13T02:14:29.711Z,15.36
2023-01-13T02:17:30.009Z,15.37
2023-01-13T02:20:02.137Z,15.37
2023-01-13T02:22:47.506Z,15.37
2023-01-13T02:25:35.663Z,15.37
2023-01-13T02:28:24.230Z,15.37
2023-01-13T02:31:33.386Z,15.37
2023-01-13T02:34:29.726Z,15.37
2023-01-13T02:37:01.508Z,15.36
2023-01-13T02:39:37.462Z,15.35
2023-01-13T02:42:56.522Z,15.34
2023-01-13T02:45:29.566Z,15.33
2023-01-13T02:47:58.295Z,15.32
2023-01-13T02:50:42.305Z,15.31
2023-01-13T02:53:13.103Z,15.29
2023-01-13T02:55:44.363Z,15.30
2023-01-13T02:58:14.129Z,15.28
2023-01-13T03:00:41.351Z,15.28
2023-01-13T03:03:07.908Z,15.28
2023-01-13T03:05:34.677Z,15.28
2023-01-13T03:08:33.542Z,15.29
2023-01-13T03:11:14.657Z,15.31
2023-01-13T03:13:59.603Z,15.30
2023-01-13T03:16:35.216Z,15.32
2023-01-13T03:19:14.033Z,15.32
2023-01-13T03:21:57.163Z,15.33
2023-01-13T03:24:47.530Z,15.35
2023-01-13T03:27:33.004Z,15.35
2023-01-13T03:30:14.930Z,15.38
2023-01-13T03:32:47.335Z,15.38
2023-01-13T03:35:25.687Z,15.38
2023-01-13T03:37:58.106Z,15.38
2023-01-13T03:40:28.389Z,15.38
2023-01-13T03:43:37.319Z,15.38
2023-01-13T03:46:08.656Z,15.38
2023-01-13T03:48:38.593Z,15.39
2023-01-13T03:51:06.774Z,15.38
2023-01-13T03:53:40.310Z,15.39
2023-01-13T03:56:38.166Z,15.38
2023-01-13T03:59:07.225Z,15.36
2023-01-13T04:01:45.582Z,15.36
2023-01-13T04:04:26.779Z,15.36
2023-01-13T04:07:12.025Z,15.36
2023-01-13T04:09:53.105Z,15.34
2023-01-13T04:12:55.119Z,15.33
2023-01-13T04:15:24.965Z,15.32
2023-01-13T04:17:52.041Z,15.32
2023-01-13T04:20:18.726Z,15.33
2023-01-13T04:22:45.318Z,15.31
2023-01-13T04:25:12.246Z,15.30
2023-01-13T04:27:38.810Z,15.31
2023-01-13T04:30:06.017Z,15.30
2023-01-13T04:32:32.590Z,15.30
2023-01-13T04:34:59.150Z,15.30
2023-01-13T04:37:26.914Z,15.32
2023-01-13T04:39:53.479Z,15.33
2023-01-13T04:42:20.056Z,15.33
2023-01-13T04:44:46.624Z,15.34
2023-01-13T04:47:13.184Z,15.35
2023-01-13T04:49:39.761Z,15.34
2023-01-13T04:52:07.265Z,15.36
2023-01-13T04:54:33.976Z,15.37
2023-01-13T04:57:00.578Z,15.37
2023-01-13T04:59:27.127Z,15.39
2023-01-13T05:01:53.850Z,15.37
2023-01-13T05:04:20.572Z,15.40
2023-01-13T05:06:47.120Z,15.41
2023-01-13T05:09:15.652Z,15.40
2023-01-13T05:12:00.996Z,15.41
2023-01-13T05:14:46.288Z,15.39
2023-01-13T05:17:24.152Z,15.40
2023-01-13T05:19:50.762Z,15.39
2023-01-13T05:22:35.697Z,15.38
2023-01-13T05:25:21.036Z,15.38
2023-01-13T05:27:53.209Z,15.37
2023-01-13T05:30:21.485Z,15.36
2023-01-13T05:32:48.109Z,15.37
2023-01-13T05:35:16.074Z,15.35
2023-01-13T05:37:46.531Z,15.34
2023-01-13T05:40:33.455Z,15.32
2023-01-13T05:43:20.460Z,15.32
2023-01-13T05:46:00.228Z,15.32
2023-01-13T05:48:32.845Z,15.33
2023-01-13T05:51:00.398Z,15.33
2023-01-13T05:53:27.252Z,15.33
2023-01-13T05:55:54.010Z,15.32
2023-01-13T05:58:23.046Z,15.34
2023-01-13T06:00:50.194Z,15.34
2023-01-13T06:03:19.791Z,15.37
2023-01-13T06:05:47.579Z,15.36
2023-01-13T06:08:14.780Z,15.37
2023-01-13T06:10:41.437Z,15.37
2023-01-13T06:13:08.032Z,15.39
2023-01-13T06:15:34.651Z,15.37
2023-01-13T06:18:04.981Z,15.39
2023-01-13T06:20:31.957Z,15.40
2023-01-13T06:22:59.178Z,15.38
2023-01-13T06:25:28.530Z,15.38
2023-01-13T06:27:56.982Z,15.37
2023-01-13T06:30:23.687Z,15.37
2023-01-13T06:32:53.530Z,15.37
2023-01-13T06:35:25.316Z,15.36
2023-01-13T06:37:53.223Z,15.37
2023-01-13T06:40:20.083Z,15.37
2023-01-13T06:43:05.124Z,15.36
2023-01-13T06:45:31.974Z,15.37
2023-01-13T06:47:59.867Z,15.38
2023-01-13T06:50:27.295Z,15.38
2023-01-13T06:52:54.036Z,15.37
2023-01-13T06:55:20.686Z,15.37
2023-01-13T06:57:52.031Z,15.36
2023-01-13T07:00:19.812Z,15.34
2023-01-13T07:02:46.565Z,15.35
2023-01-13T07:05:13.590Z,15.35
2023-01-13T07:07:40.516Z,15.32
2023-01-13T07:10:09.818Z,15.34
2023-01-13T07:12:57.801Z,15.33
2023-01-13T07:15:24.951Z,15.32
2023-01-13T07:17:51.556Z,15.33
2023-01-13T07:20:18.234Z,15.35
2023-01-13T07:22:45.365Z,15.34
2023-01-13T07:25:11.983Z,15.34
2023-01-13T07:27:38.783Z,15.37
2023-01-13T07:30:06.165Z,15.36
2023-01-13T07:32:33.654Z,15.39
2023-01-13T07:35:05.274Z,15.39
2023-01-13T07:37:37.192Z,15.40
2023-01-13T07:40:05.250Z,15.40
2023-01-13T07:42:50.801Z,15.40
2023-01-13T07:45:17.422Z,15.40
2023-01-13T07:47:43.981Z,15.40
2023-01-13T07:50:11.093Z,15.39
2023-01-13T07:52:37.711Z,15.40
2023-01-13T07:55:04.515Z,15.39
2023-01-13T07:57:31.104Z,15.37
2023-01-13T07:59:57.724Z,15.39
2023-01-13T08:02:24.527Z,15.38
2023-01-13T08:04:51.154Z,15.39
2023-01-13T08:07:17.840Z,15.38
2023-01-13T08:09:44.379Z,15.39
2023-01-13T08:12:29.351Z,15.38
2023-01-13T08:14:56.034Z,15.37
2023-01-13T08:17:22.634Z,15.38
2023-01-13T08:19:49.259Z,15.36
2023-01-13T08:22:15.932Z,15.38
2023-01-13T08:24:42.515Z,15.37
2023-01-13T08:27:09.144Z,15.36
2023-01-13T08:29:35.738Z,15.35
2023-01-13T08:32:02.376Z,15.34
2023-01-13T08:34:29.042Z,15.35
2023-01-13T08:36:55.627Z,15.35
2023-01-13T08:39:23.787Z,15.35
2023-01-13T08:41:56.727Z,15.36
2023-01-13T08:44:25.274Z,15.37
2023-01-13T08:46:51.909Z,15.38
2023-01-13T08:49:18.711Z,15.39
2023-01-13T08:51:45.490Z,15.41
2023-01-13T08:54:12.512Z,15.41
2023-01-13T08:56:40.249Z,15.42
2023-01-13T08:59:09.864Z,15.41
2023-01-13T09:01:39.011Z,15.42
2023-01-13T09:04:07.298Z,15.43
2023-01-13T09:06:33.937Z,15.43
2023-01-13T09:09:02.362Z,15.43
2023-01-13T09:11:51.191Z,15.40
2023-01-13T09:14:22.581Z,15.42
2023-01-13T09:16:49.178Z,15.42
2023-01-13T09:19:15.776Z,15.42
2023-01-13T09:21:42.470Z,15.40
2023-01-13T09:24:09.316Z,15.40
2023-01-13T09:26:37.413Z,15.39
2023-01-13T09:29:04.399Z,15.38
2023-01-13T09:31:34.483Z,15.38
2023-01-13T09:34:22.420Z,15.40
2023-01-13T09:36:49.663Z,15.38
2023-01-13T09:39:16.680Z,15.38
2023-01-13T09:42:04.031Z,15.38
2023-01-13T09:44:48.073Z,15.37
2023-01-13T09:47:41.127Z,15.36
2023-01-13T09:50:58.717Z,15.36
2023-01-13T09:53:38.709Z,15.34
2023-01-13T09:56:05.789Z,15.35
2023-01-13T09:58:33.171Z,15.36
2023-01-13T10:01:24.680Z,15.36
2023-01-13T10:03:51.402Z,15.37
2023-01-13T10:06:24.619Z,15.38
2023-01-13T10:08:51.407Z,15.40
2023-01-13T10:11:38.950Z,15.40
2023-01-13T10:14:23.259Z,15.38
2023-01-13T10:16:55.739Z,15.41
2023-01-13T10:19:26.179Z,15.42
2023-01-13T10:22:07.292Z,15.43
2023-01-13T10:24:44.736Z,15.43
2023-01-13T10:27:32.075Z,15.44
2023-01-13T10:29:58.689Z,15.38
2023-01-13T10:32:25.336Z,15.26
2023-01-13T10:34:52.330Z,15.28
2023-01-13T10:37:25.953Z,15.30
2023-01-13T10:39:56.071Z,15.35
2023-01-13T10:42:24.024Z,15.37
2023-01-13T10:44:57.059Z,15.37
2023-01-13T10:47:29.365Z,15.39
2023-01-13T10:50:11.172Z,15.41
2023-01-13T10:52:55.447Z,15.42
2023-01-13T10:55:26.671Z,15.41
2023-01-13T10:57:53.226Z,15.42
2023-01-13T11:00:30.894Z,15.41
2023-01-13T11:03:15.801Z,15.43
2023-01-13T11:05:58.393Z,15.42
2023-01-13T11:08:28.480Z,15.42
2023-01-13T11:10:57.272Z,15.41
2023-01-13T11:13:32.855Z,15.40
2023-01-13T11:16:12.618Z,15.38
2023-01-13T11:19:11.694Z,15.38
2023-01-13T11:21:43.855Z,15.40
2023-01-13T11:24:20.632Z,15.41
2023-01-13T11:27:00.936Z,15.43
2023-01-13T11:29:32.160Z,15.45
2023-01-13T11:32:05.594Z,15.44
2023-01-13T11:34:36.170Z,15.46
2023-01-13T11:37:17.429Z,15.47
2023-01-13T11:40:05.688Z,15.47
2023-01-13T11:42:43.967Z,15.49
2023-01-13T11:45:19.801Z,15.49
2023-01-13T11:47:48.771Z,15.47
2023-01-13T11:50:18.910Z,15.49
2023-01-13T11:53:17.704Z,15.48
2023-01-13T11:55:56.462Z,15.46
2023-01-13T11:58:50.963Z,15.47
2023-01-13T12:01:24.393Z,15.45
2023-01-13T12:04:10.223Z,15.43
2023-01-13T12:06:40.237Z,15.43
2023-01-13T12:09:30.367Z,15.43
2023-01-13T12:12:18.648Z,15.43
2023-01-13T12:15:13.555Z,15.43
2023-01-13T12:17:46.203Z,15.43
2023-01-13T12:20:22.055Z,15.45
2023-01-13T12:22:50.066Z,15.46
2023-01-13T12:25:49.868Z,15.47
2023-01-13T12:28:37.845Z,15.47
2023-01-13T12:31:04.696Z,15.48
2023-01-13T12:33:53.302Z,15.47
2023-01-13T12:36:51.931Z,15.48
2023-01-13T12:39:33.654Z,15.49
2023-01-13T12:42:36.939Z,15.48
2023-01-13T12:45:09.775Z,15.49
2023-01-13T12:47:38.990Z,15.50
2023-01-13T12:50:23.923Z,15.50
2023-01-13T12:52:56.015Z,15.51
2023-01-13T12:55:30.877Z,15.51
2023-01-13T12:58:15.337Z,15.52
2023-01-13T13:00:41.842Z,15.52
2023-01-13T13:03:11.244Z,15.52
2023-01-13T13:06:01.853Z,15.52
2023-01-13T13:09:06.483Z,15.51
2023-01-13T13:12:00.221Z,15.52
2023-01-13T13:14:41.878Z,15.50
2023-01-13T13:17:30.004Z,15.50
2023-01-13T13:19:57.070Z,15.48
2023-01-13T13:22:26.284Z,15.48
2023-01-13T13:24:55.925Z,15.48
2023-01-13T13:27:30.099Z,15.48
2023-01-13T13:30:11.852Z,15.49
2023-01-13T13:32:44.437Z,15.50
2023-01-13T13:35:26.700Z,15.49
2023-01-13T13:38:14.970Z,15.52
2023-01-13T13:41:03.894Z,15.54
2023-01-13T13:43:59.763Z,15.56
2023-01-13T13:46:46.131Z,15.54
2023-01-13T13:49:34.451Z,15.55
2023-01-13T13:52:06.966Z,15.54
2023-01-13T13:54:33.625Z,15.52
2023-01-13T13:57:01.015Z,15.52
2023-01-13T13:59:30.657Z,15.53
2023-01-13T14:02:03.987Z,15.52
2023-01-13T14:04:33.330Z,15.53
2023-01-13T14:07:17.983Z,15.51
2023-01-13T14:09:46.822Z,15.53
2023-01-13T14:12:22.070Z,15.55
2023-01-13T14:14:49.520Z,15.53
2023-01-13T14:17:30.121Z,15.55
2023-01-13T14:20:05.884Z,15.55
2023-01-13T14:22:32.726Z,15.54
2023-01-13T14:25:01.702Z,15.55
2023-01-13T14:27:30.014Z,15.53
2023-01-13T14:29:58.875Z,15.54
2023-01-13T14:32:32.672Z,15.55
2023-01-13T14:34:59.475Z,15.57
2023-01-13T14:37:50.533Z,15.56
2023-01-13T14:40:36.223Z,15.56
2023-01-13T14:43:04.255Z,15.54
2023-01-13T14:45:33.147Z,15.53
2023-01-13T14:48:01.576Z,15.51
2023-01-13T14:50:32.677Z,15.50
2023-01-13T14:53:00.709Z,15.48
2023-01-13T14:55:30.584Z,15.47
2023-01-13T14:58:22.001Z,15.48
2023-01-13T15:00:49.713Z,15.48
2023-01-13T15:03:20.687Z,15.46
2023-01-13T15:05:49.429Z,15.45
2023-01-13T15:08:17.409Z,15.45
2023-01-13T15:10:52.939Z,15.43
2023-01-13T15:13:24.268Z,15.44
2023-01-13T15:15:58.363Z,15.42
2023-01-13T15:18:25.239Z,15.44
2023-01-13T15:20:51.943Z,15.44
2023-01-13T15:23:19.580Z,15.44
2023-01-13T15:25:47.101Z,15.45
2023-01-13T15:28:22.453Z,15.46
2023-01-13T15:30:50.680Z,15.48
2023-01-13T15:33:18.049Z,15.48
2023-01-13T15:35:47.890Z,15.47
2023-01-13T15:38:17.782Z,15.49
2023-01-13T15:40:44.632Z,15.49
2023-01-13T15:43:35.413Z,15.50
2023-01-13T15:46:21.500Z,15.50
2023-01-13T15:48:49.048Z,15.50
2023-01-13T15:51:21.347Z,15.49
2023-01-13T15:53:48.064Z,15.50
2023-01-13T15:56:21.356Z,15.49
2023-01-13T15:58:47.965Z,15.48
2023-01-13T16:01:14.606Z,15.47
2023-01-13T16:03:41.228Z,15.47
2023-01-13T16:06:16.221Z,15.45
2023-01-13T16:08:42.862Z,15.44
2023-01-13T16:11:10.332Z,15.42
2023-01-13T16:13:37.118Z,15.42
2023-01-13T16:16:04.741Z,15.40
2023-01-13T16:18:31.388Z,15.40
2023-01-13T16:20:57.942Z,15.39
2023-01-13T16:23:24.536Z,15.39
2023-01-13T16:25:51.166Z,15.37
2023-01-13T16:28:24.022Z,15.36
2023-01-13T16:30:51.184Z,15.37
2023-01-13T16:33:17.889Z,15.35
2023-01-13T16:36:10.829Z,15.35
2023-01-13T16:38:31.025Z,15.36
2023-01-13T16:40:57.653Z,15.36
2023-01-13T16:43:24.231Z,15.37
2023-01-13T16:45:50.871Z,15.37
2023-01-13T16:48:19.899Z,15.38
2023-01-13T16:50:46.615Z,15.39
2023-01-13T16:53:13.243Z,15.42
2023-01-13T16:55:41.043Z,15.43
2023-01-13T16:58:15.723Z,15.43
2023-01-13T17:00:42.372Z,15.45
2023-01-13T17:03:08.998Z,15.47
2023-01-13T17:05:39.412Z,15.46
2023-01-13T17:08:07.326Z,15.47
2023-01-13T17:10:33.917Z,15.47
2023-01-13T17:13:14.111Z,15.48
2023-01-13T17:15:42.402Z,15.48
2023-01-13T17:18:08.984Z,15.46
2023-01-13T17:20:35.553Z,15.47
2023-01-13T17:23:02.146Z,15.47
2023-01-13T17:25:28.737Z,15.45
2023-01-13T17:27:55.320Z,15.45
2023-01-13T17:30:21.974Z,15.43
2023-01-13T17:32:48.572Z,15.43
2023-01-13T17:35:18.974Z,15.42
2023-01-13T17:37:46.085Z,15.40
2023-01-13T17:40:13.058Z,15.39
2023-01-13T17:42:39.631Z,15.38
2023-01-13T17:45:06.990Z,15.38
2023-01-13T17:47:33.593Z,15.37
2023-01-13T17:50:00.173Z,15.35
2023-01-13T17:52:26.782Z,15.35
2023-01-13T17:54:53.400Z,15.34
2023-01-13T17:57:19.991Z,15.34
2023-01-13T17:59:47.996Z,15.33
2023-01-13T18:02:15.204Z,15.34
2023-01-13T18:04:42.295Z,15.34
2023-01-13T18:07:08.956Z,15.35
2023-01-13T18:09:35.539Z,15.35
2023-01-13T18:12:02.313Z,15.39
2023-01-13T18:14:29.069Z,15.39
2023-01-13T18:16:55.758Z,15.40
2023-01-13T18:19:40.933Z,15.42
2023-01-13T18:22:27.233Z,15.41
2023-01-13T18:25:12.530Z,15.44
2023-01-13T18:27:41.515Z,15.43
2023-01-13T18:30:09.147Z,15.45
2023-01-13T18:32:35.935Z,15.46
2023-01-13T18:35:06.773Z,15.44
2023-01-13T18:37:36.149Z,15.44
2023-01-13T18:40:03.959Z,15.44
2023-01-13T18:42:49.031Z,15.42
2023-01-13T18:45:15.623Z,15.41
2023-01-13T18:47:42.457Z,15.39
2023-01-13T18:50:12.226Z,15.39
2023-01-13T18:52:38.874Z,15.39
2023-01-13T18:55:05.809Z,15.38
2023-01-13T18:57:32.574Z,15.37
2023-01-13T18:59:59.286Z,15.35
2023-01-13T19:02:27.865Z,15.35
2023-01-13T19:04:54.618Z,15.33
2023-01-13T19:07:28.293Z,15.34
2023-01-13T19:09:55.758Z,15.32
2023-01-13T19:12:26.190Z,15.32
2023-01-13T19:14:54.445Z,15.32
2023-01-13T19:17:22.254Z,15.31
2023-01-13T19:19:51.356Z,15.30
2023-01-13T19:22:23.404Z,15.30
2023-01-13T19:24:50.638Z,15.32
2023-01-13T19:27:18.567Z,15.31
2023-01-13T19:29:51.984Z,15.35
2023-01-13T19:32:20.194Z,15.36
2023-01-13T19:34:47.850Z,15.37
2023-01-13T19:37:14.425Z,15.39
2023-01-13T19:39:41.066Z,15.39
2023-01-13T19:42:26.391Z,15.43
2023-01-13T19:45:11.635Z,15.45
2023-01-13T19:47:38.796Z,15.46
2023-01-13T19:50:08.023Z,15.45
2023-01-13T19:52:35.014Z,15.47
2023-01-13T19:55:02.000Z,15.46
2023-01-13T19:57:28.822Z,15.47
2023-01-13T19:59:55.378Z,15.46
2023-01-13T20:02:32.029Z,15.45
2023-01-13T20:05:00.189Z,15.43
2023-01-13T20:07:29.667Z,15.43
2023-01-13T20:09:56.588Z,15.41
2023-01-13T20:12:24.297Z,15.41
2023-01-13T20:14:51.179Z,15.39
2023-01-13T20:17:19.485Z,15.37
2023-01-13T20:19:46.829Z,15.36
2023-01-13T20:22:13.665Z,15.35
2023-01-13T20:24:40.221Z,15.35
2023-01-13T20:27:07.174Z,15.34
2023-01-13T20:29:34.136Z,15.33
2023-01-13T20:32:00.932Z,15.33
2023-01-13T20:34:27.737Z,15.32
2023-01-13T20:36:54.422Z,15.31
2023-01-13T20:39:26.400Z,15.31
2023-01-13T20:42:12.393Z,15.31
2023-01-13T20:44:39.101Z,15.31
2023-01-13T20:47:05.903Z,15.31
2023-01-13T20:49:32.533Z,15.34
2023-01-13T20:51:59.122Z,15.33
2023-01-13T20:54:26.219Z,15.33
2023-01-13T20:56:53.634Z,15.34
2023-01-13T20:59:20.397Z,15.35
2023-01-13T21:01:47.100Z,15.37
2023-01-13T21:04:13.758Z,15.38
2023-01-13T21:06:41.621Z,15.38
2023-01-13T21:09:08.916Z,15.40
2023-01-13T21:11:54.143Z,15.41
2023-01-13T21:14:44.252Z,15.42
2023-01-13T21:17:30.956Z,15.41
2023-01-13T21:19:57.805Z,15.40
2023-01-13T21:22:24.576Z,15.39
2023-01-13T21:24:51.432Z,15.39
2023-01-13T21:27:18.298Z,15.40
2023-01-13T21:29:46.289Z,15.38
2023-01-13T21:32:13.064Z,15.37
2023-01-13T21:34:39.719Z,15.38
2023-01-13T21:37:06.407Z,15.36
2023-01-13T21:39:32.961Z,15.36
2023-01-13T21:42:18.428Z,15.35
2023-01-13T21:45:03.702Z,15.33
2023-01-13T21:47:48.756Z,15.34
2023-01-13T21:50:21.237Z,15.33
2023-01-13T21:52:48.756Z,15.32
2023-01-13T21:55:26.925Z,15.30
2023-01-13T21:58:19.851Z,15.30
2023-01-13T22:00:46.544Z,15.30
2023-01-13T22:03:18.377Z,15.29
2023-01-13T22:05:46.126Z,15.30
2023-01-13T22:08:13.547Z,15.32
2023-01-13T22:10:57.278Z,15.32
2023-01-13T22:13:42.687Z,15.32
2023-01-13T22:16:09.619Z,15.32
2023-01-13T22:18:36.346Z,15.34
2023-01-13T22:21:02.955Z,15.34
2023-01-13T22:23:29.536Z,15.36
2023-01-13T22:26:06.226Z,15.37
2023-01-13T22:28:40.097Z,15.39
2023-01-13T22:31:13.636Z,15.38
2023-01-13T22:33:40.972Z,15.38
2023-01-13T22:36:09.670Z,15.41
2023-01-13T22:38:36.694Z,15.41
2023-01-13T22:41:06.623Z,15.40
2023-01-13T22:43:34.119Z,15.39
2023-01-13T22:46:06.883Z,15.38
2023-01-13T22:48:34.007Z,15.37
2023-01-13T22:51:08.191Z,15.36
2023-01-13T22:53:35.531Z,15.36
2023-01-13T22:56:02.221Z,15.35
2023-01-13T22:58:29.117Z,15.34
2023-01-13T23:00:56.148Z,15.32
2023-01-13T23:03:23.301Z,15.32
2023-01-13T23:05:55.729Z,15.31
2023-01-13T23:08:22.322Z,15.29
2023-01-13T23:10:48.925Z,15.30
2023-01-13T23:13:15.474Z,15.29
2023-01-13T23:15:42.091Z,15.27
2023-01-13T23:18:08.667Z,15.26
2023-01-13T23:20:35.254Z,15.26
2023-01-13T23:23:01.825Z,15.25
2023-01-13T23:25:28.405Z,15.25
2023-01-13T23:27:55.680Z,15.27
2023-01-13T23:30:22.252Z,15.27
2023-01-13T23:32:48.817Z,15.27
2023-01-13T23:35:15.524Z,15.28
2023-01-13T23:37:42.075Z,15.29
2023-01-13T23:40:09.747Z,15.29
2023-01-13T23:42:36.345Z,15.31
2023-01-13T23:45:03.023Z,15.34
2023-01-13T23:47:29.602Z,15.35
2023-01-13T23:49:56.202Z,15.37
2023-01-13T23:52:22.782Z,15.38
2023-01-13T23:54:49.387Z,15.40
2023-01-13T23:57:16.405Z,15.40
2023-01-13T23:59:43.096Z,15.41
